createdAt,value
2022-11-07T00:00:18.030Z,21.59
2022-11-07T00:03:08.302Z,21.58
2022-11-07T00:05:57.955Z,21.22
2022-11-07T00:08:47.823Z,21.51
2022-11-07T00:11:37.159Z,21.37
2022-11-07T00:14:28.556Z,21.38
2022-11-07T00:17:19.812Z,21.25
2022-11-07T00:20:11.710Z,21.42
2022-11-07T00:23:02.186Z,21.41
2022-11-07T00:25:52.519Z,21.57
2022-11-07T00:28:44.016Z,21.57
2022-11-07T00:31:34.951Z,21.52
2022-11-07T00:34:24.255Z,21.53
2022-11-07T00:37:14.018Z,21.59
2022-11-07T00:40:03.769Z,21.50
2022-11-07T00:42:53.752Z,21.48
2022-11-07T00:45:42.978Z,21.46
2022-11-07T00:48:33.738Z,21.52
2022-11-07T00:51:26.677Z,21.46
2022-11-07T00:54:17.163Z,21.50
2022-11-07T00:57:06.466Z,21.53
2022-11-07T00:59:56.737Z,21.38
2022-11-07T01:03:05.878Z,21.53
2022-11-07T01:06:01.343Z,21.57
2022-11-07T01:08:52.494Z,21.48
2022-11-07T01:11:44.655Z,21.50
2022-11-07T01:14:33.984Z,21.40
2022-11-07T01:17:24.170Z,21.33
2022-11-07T01:20:13.735Z,21.39
2022-11-07T01:23:04.900Z,21.37
2022-11-07T01:25:54.255Z,21.33
2022-11-07T01:28:44.757Z,21.39
2022-11-07T01:31:34.628Z,21.38
2022-11-07T01:34:24.923Z,21.41
2022-11-07T01:37:14.329Z,21.48
2022-11-07T01:40:04.902Z,21.47
2022-11-07T01:42:55.575Z,21.26
2022-11-07T01:45:45.720Z,21.37
2022-11-07T01:48:35.242Z,21.14
2022-11-07T01:51:26.544Z,21.25
2022-11-07T01:54:18.612Z,21.50
2022-11-07T01:57:19.530Z,21.51
2022-11-07T02:00:13.186Z,21.57
2022-11-07T02:03:18.816Z,21.63
2022-11-07T02:06:17.020Z,21.70
2022-11-07T02:09:07.511Z,21.55
2022-11-07T02:12:02.080Z,21.54
2022-11-07T02:14:53.409Z,21.62
2022-11-07T02:17:43.038Z,21.52
2022-11-07T02:20:33.293Z,21.58
2022-11-07T02:23:35.528Z,21.66
2022-11-07T02:26:26.475Z,21.45
2022-11-07T02:29:16.094Z,21.59
2022-11-07T02:32:09.386Z,21.72
2022-11-07T02:35:01.078Z,21.72
2022-11-07T02:37:51.630Z,21.70
2022-11-07T02:40:41.493Z,21.73
2022-11-07T02:43:34.190Z,21.80
2022-11-07T02:46:24.029Z,22.31
2022-11-07T02:49:13.655Z,22.05
2022-11-07T02:52:05.501Z,22.18
2022-11-07T02:54:55.731Z,22.15
2022-11-07T02:57:45.545Z,22.16
2022-11-07T03:00:35.381Z,22.10
2022-11-07T03:03:25.648Z,22.36
2022-11-07T03:06:20.230Z,22.37
2022-11-07T03:09:09.674Z,22.37
2022-11-07T03:11:59.990Z,22.49
2022-11-07T03:14:49.793Z,22.46
2022-11-07T03:17:40.061Z,22.57
2022-11-07T03:20:30.264Z,22.90
2022-11-07T03:23:20.058Z,23.16
2022-11-07T03:26:09.848Z,23.14
2022-11-07T03:29:00.905Z,23.06
2022-11-07T03:31:50.963Z,22.86
2022-11-07T03:34:41.003Z,22.83
2022-11-07T03:37:30.451Z,23.13
2022-11-07T03:40:22.807Z,23.40
2022-11-07T03:43:13.409Z,23.20
2022-11-07T03:46:03.953Z,23.24
2022-11-07T03:48:54.342Z,23.60
2022-11-07T03:51:44.591Z,23.65
2022-11-07T03:54:34.064Z,23.72
2022-11-07T03:57:26.876Z,23.60
2022-11-07T04:00:18.666Z,23.44
2022-11-07T04:03:08.627Z,23.56
2022-11-07T04:05:58.170Z,23.45
2022-11-07T04:08:49.409Z,23.42
2022-11-07T04:11:57.380Z,23.84
2022-11-07T04:15:05.815Z,23.92
2022-11-07T04:17:55.137Z,23.87
2022-11-07T04:20:45.564Z,23.93
2022-11-07T04:23:35.140Z,23.90
2022-11-07T04:26:52.841Z,23.95
2022-11-07T04:29:43.122Z,24.04
2022-11-07T04:32:33.461Z,23.88
2022-11-07T04:35:26.178Z,24.06
2022-11-07T04:38:15.774Z,24.16
2022-11-07T04:41:08.196Z,24.33
2022-11-07T04:43:58.768Z,24.38
2022-11-07T04:46:48.083Z,24.40
2022-11-07T04:49:38.066Z,24.40
2022-11-07T04:52:27.369Z,24.49
2022-11-07T04:55:26.443Z,24.70
2022-11-07T04:58:16.250Z,24.73
2022-11-07T05:01:05.998Z,24.67
2022-11-07T05:03:55.425Z,24.72
2022-11-07T05:06:44.848Z,24.62
2022-11-07T05:09:35.352Z,24.95
2022-11-07T05:12:24.988Z,24.78
2022-11-07T05:15:14.939Z,24.88
2022-11-07T05:18:04.401Z,25.01
2022-11-07T05:20:54.540Z,24.94
2022-11-07T05:23:44.107Z,24.75
2022-11-07T05:26:33.431Z,24.67
2022-11-07T05:29:23.248Z,25.15
2022-11-07T05:32:13.467Z,25.08
2022-11-07T05:35:03.054Z,25.28
2022-11-07T05:37:52.411Z,25.45
2022-11-07T05:40:43.278Z,25.10
2022-11-07T05:43:32.707Z,25.56
2022-11-07T05:46:22.617Z,25.32
2022-11-07T05:49:14.483Z,25.40
2022-11-07T05:52:04.224Z,25.63
2022-11-07T05:54:54.120Z,25.76
2022-11-07T05:57:43.950Z,25.83
2022-11-07T06:00:33.597Z,25.72
2022-11-07T06:03:23.746Z,25.65
2022-11-07T06:06:13.653Z,25.36
2022-11-07T06:09:03.256Z,25.72
2022-11-07T06:11:52.595Z,25.65
2022-11-07T06:14:44.809Z,25.79
2022-11-07T06:17:34.130Z,26.00
2022-11-07T06:20:23.607Z,25.83
2022-11-07T06:23:14.225Z,25.85
2022-11-07T06:26:04.041Z,26.18
2022-11-07T06:28:54.474Z,26.37
2022-11-07T06:31:44.077Z,26.10
2022-11-07T06:34:34.192Z,26.56
2022-11-07T06:37:24.456Z,26.64
2022-11-07T06:40:15.226Z,26.67
2022-11-07T06:43:15.985Z,26.81
2022-11-07T06:46:08.664Z,26.85
2022-11-07T06:48:58.519Z,26.98
2022-11-07T06:51:50.985Z,26.67
2022-11-07T06:54:40.553Z,26.77
2022-11-07T06:57:31.441Z,26.83
2022-11-07T07:00:21.124Z,27.08
2022-11-07T07:03:13.384Z,27.29
2022-11-07T07:06:07.871Z,26.83
2022-11-07T07:08:38.593Z,26.99
2022-11-07T07:11:11.416Z,27.12
2022-11-07T07:13:41.317Z,27.26
2022-11-07T07:16:11.651Z,27.25
2022-11-07T07:18:41.370Z,27.42
2022-11-07T07:21:15.397Z,27.52
2022-11-07T07:23:45.466Z,27.37
2022-11-07T07:26:17.169Z,27.45
2022-11-07T07:28:46.682Z,27.37
2022-11-07T07:31:15.770Z,27.48
2022-11-07T07:33:47.111Z,27.50
2022-11-07T07:36:20.918Z,27.52
2022-11-07T07:38:51.303Z,27.65
2022-11-07T07:41:21.312Z,27.42
2022-11-07T07:43:50.382Z,27.74
2022-11-07T07:46:24.102Z,27.76
2022-11-07T07:48:53.568Z,27.85
2022-11-07T07:51:23.008Z,27.87
2022-11-07T07:53:52.186Z,27.81
2022-11-07T07:56:21.389Z,27.85
2022-11-07T07:58:51.162Z,27.96
2022-11-07T08:01:26.048Z,27.84
2022-11-07T08:04:02.019Z,27.71
2022-11-07T08:06:33.436Z,27.67
2022-11-07T08:09:02.976Z,27.91
2022-11-07T08:11:40.679Z,28.05
2022-11-07T08:14:16.852Z,28.05
2022-11-07T08:16:47.642Z,27.89
2022-11-07T08:19:19.295Z,27.82
2022-11-07T08:21:48.512Z,28.15
2022-11-07T08:24:17.862Z,28.15
2022-11-07T08:26:47.820Z,28.20
2022-11-07T08:29:16.952Z,28.20
2022-11-07T08:31:45.834Z,28.31
2022-11-07T08:34:15.510Z,28.40
2022-11-07T08:36:45.057Z,28.41
2022-11-07T08:39:14.229Z,28.27
2022-11-07T08:41:44.296Z,28.38
2022-11-07T08:44:13.683Z,28.52
2022-11-07T08:46:42.741Z,28.49
2022-11-07T08:49:12.035Z,28.36
2022-11-07T08:51:41.581Z,28.25
2022-11-07T08:54:11.679Z,28.48
2022-11-07T08:56:40.839Z,28.51
2022-11-07T08:59:11.047Z,28.35
2022-11-07T09:01:55.957Z,28.27
2022-11-07T09:04:29.995Z,28.39
2022-11-07T09:06:59.049Z,28.46
2022-11-07T09:09:29.909Z,28.36
2022-11-07T09:12:02.070Z,28.43
2022-11-07T09:14:31.336Z,28.80
2022-11-07T09:17:00.215Z,28.69
2022-11-07T09:19:29.573Z,28.43
2022-11-07T09:21:59.670Z,28.70
2022-11-07T09:24:28.683Z,28.65
2022-11-07T09:26:59.371Z,28.53
2022-11-07T09:29:30.584Z,28.44
2022-11-07T09:32:11.936Z,28.46
2022-11-07T09:34:55.923Z,28.37
2022-11-07T09:37:26.661Z,28.35
2022-11-07T09:39:55.993Z,28.47
2022-11-07T09:42:40.293Z,28.58
2022-11-07T09:45:14.562Z,28.75
2022-11-07T09:47:57.404Z,28.51
2022-11-07T09:50:35.527Z,28.35
2022-11-07T09:53:09.065Z,28.37
2022-11-07T09:55:53.197Z,28.61
2022-11-07T09:58:34.207Z,28.56
2022-11-07T10:01:09.089Z,28.37
2022-11-07T10:03:49.076Z,28.42
2022-11-07T10:06:25.577Z,28.38
2022-11-07T10:08:57.696Z,28.26
2022-11-07T10:11:26.823Z,28.50
2022-11-07T10:14:23.247Z,28.27
2022-11-07T10:17:19.307Z,28.29
2022-11-07T10:19:51.486Z,28.05
2022-11-07T10:22:20.317Z,28.39
2022-11-07T10:25:07.102Z,28.28
2022-11-07T10:27:39.730Z,28.39
2022-11-07T10:30:21.350Z,28.30
2022-11-07T10:33:00.118Z,28.20
2022-11-07T10:35:39.816Z,28.35
2022-11-07T10:38:30.708Z,28.34
2022-11-07T10:41:00.706Z,28.12
2022-11-07T10:43:50.654Z,28.21
2022-11-07T10:46:23.845Z,28.22
2022-11-07T10:49:02.120Z,28.25
2022-11-07T10:51:35.659Z,28.13
2022-11-07T10:54:08.403Z,28.02
2022-11-07T10:56:50.014Z,28.04
2022-11-07T10:59:35.657Z,28.11
2022-11-07T11:02:21.779Z,28.23
2022-11-07T11:05:00.744Z,28.09
2022-11-07T11:07:41.442Z,27.79
2022-11-07T11:10:34.555Z,27.63
2022-11-07T11:13:03.897Z,27.36
2022-11-07T11:15:35.869Z,27.32
2022-11-07T11:18:09.515Z,27.41
2022-11-07T11:20:44.642Z,27.32
2022-11-07T11:23:23.811Z,27.26
2022-11-07T11:25:59.904Z,27.21
2022-11-07T11:28:45.416Z,27.13
2022-11-07T11:31:44.001Z,27.39
2022-11-07T11:34:23.621Z,27.24
2022-11-07T11:37:05.855Z,27.11
2022-11-07T11:39:41.000Z,26.76
2022-11-07T11:42:25.748Z,26.96
2022-11-07T11:45:00.224Z,26.99
2022-11-07T11:47:42.460Z,26.97
2022-11-07T11:50:23.913Z,26.70
2022-11-07T11:52:53.619Z,26.37
2022-11-07T11:55:25.334Z,26.54
2022-11-07T11:58:04.088Z,26.57
2022-11-07T12:00:44.924Z,26.23
2022-11-07T12:03:58.856Z,26.48
2022-11-07T12:06:41.205Z,26.58
2022-11-07T12:09:35.086Z,26.14
2022-11-07T12:12:33.805Z,26.42
2022-11-07T12:15:06.035Z,25.92
2022-11-07T12:17:57.635Z,26.18
2022-11-07T12:21:00.540Z,25.97
2022-11-07T12:24:10.998Z,26.11
2022-11-07T12:26:58.116Z,26.15
2022-11-07T12:29:39.464Z,26.16
2022-11-07T12:32:19.981Z,26.14
2022-11-07T12:34:59.983Z,26.03
2022-11-07T12:38:16.776Z,25.97
2022-11-07T12:40:51.328Z,25.85
2022-11-07T12:43:48.585Z,25.92
2022-11-07T12:46:46.096Z,25.79
2022-11-07T12:49:44.910Z,25.74
2022-11-07T12:52:33.725Z,25.89
2022-11-07T12:55:35.002Z,25.82
2022-11-07T12:58:05.586Z,25.64
2022-11-07T13:00:37.087Z,25.69
2022-11-07T13:03:45.372Z,25.61
2022-11-07T13:06:33.483Z,25.69
2022-11-07T13:09:33.965Z,25.56
2022-11-07T13:12:27.444Z,25.52
2022-11-07T13:15:00.023Z,25.39
2022-11-07T13:17:41.710Z,25.42
2022-11-07T13:20:23.198Z,25.35
2022-11-07T13:22:54.885Z,25.14
2022-11-07T13:25:27.882Z,25.14
2022-11-07T13:27:56.975Z,25.17
2022-11-07T13:30:32.414Z,25.21
2022-11-07T13:33:02.148Z,24.98
2022-11-07T13:35:34.348Z,25.15
2022-11-07T13:38:13.819Z,25.11
2022-11-07T13:40:53.620Z,25.10
2022-11-07T13:43:25.119Z,24.86
2022-11-07T13:46:03.020Z,25.02
2022-11-07T13:48:48.561Z,24.90
2022-11-07T13:51:41.187Z,25.09
2022-11-07T13:54:38.903Z,24.91
2022-11-07T13:57:10.316Z,24.90
2022-11-07T13:59:57.918Z,24.82
2022-11-07T14:02:31.790Z,24.64
2022-11-07T14:05:17.914Z,24.86
2022-11-07T14:07:59.068Z,24.74
2022-11-07T14:10:41.142Z,24.49
2022-11-07T14:13:21.413Z,24.63
2022-11-07T14:15:55.429Z,24.62
2022-11-07T14:18:29.153Z,24.61
2022-11-07T14:20:59.976Z,24.31
2022-11-07T14:23:32.615Z,24.51
2022-11-07T14:26:03.446Z,24.53
2022-11-07T14:28:38.474Z,24.46
2022-11-07T14:31:17.327Z,24.48
2022-11-07T14:33:55.807Z,24.48
2022-11-07T14:36:26.895Z,24.09
2022-11-07T14:39:04.222Z,23.94
2022-11-07T14:41:39.438Z,23.96
2022-11-07T14:44:15.559Z,23.91
2022-11-07T14:46:46.113Z,23.75
2022-11-07T14:49:36.789Z,24.01
2022-11-07T14:52:08.945Z,24.04
2022-11-07T14:54:44.747Z,24.10
2022-11-07T14:57:16.182Z,23.90
2022-11-07T14:59:45.939Z,23.93
2022-11-07T15:02:22.298Z,23.61
2022-11-07T15:04:52.135Z,23.75
2022-11-07T15:07:31.450Z,23.74
2022-11-07T15:10:14.440Z,23.81
2022-11-07T15:13:26.126Z,23.88
2022-11-07T15:16:23.588Z,23.38
2022-11-07T15:19:01.750Z,23.49
2022-11-07T15:21:35.381Z,23.47
2022-11-07T15:24:33.355Z,23.57
2022-11-07T15:27:08.084Z,23.34
2022-11-07T15:29:38.323Z,23.42
2022-11-07T15:32:18.009Z,23.55
2022-11-07T15:37:33.016Z,23.38
2022-11-07T15:40:02.066Z,23.25
2022-11-07T15:42:31.224Z,23.42
2022-11-07T15:45:00.752Z,23.39
2022-11-07T15:47:29.859Z,23.44
2022-11-07T15:49:59.103Z,23.42
2022-11-07T15:52:28.176Z,23.18
2022-11-07T15:54:57.486Z,23.07
2022-11-07T15:57:26.535Z,22.98
2022-11-07T15:59:56.024Z,23.13
2022-11-07T16:02:25.251Z,23.27
2022-11-07T16:04:54.464Z,23.17
2022-11-07T16:07:23.433Z,23.34
2022-11-07T16:09:52.512Z,23.40
2022-11-07T16:12:21.965Z,23.45
2022-11-07T16:14:51.519Z,23.19
2022-11-07T16:17:21.218Z,23.35
2022-11-07T16:19:50.273Z,22.91
2022-11-07T16:22:19.921Z,23.10
2022-11-07T16:24:49.305Z,23.24
2022-11-07T16:27:19.772Z,23.43
2022-11-07T16:29:49.683Z,23.11
2022-11-07T16:32:18.891Z,22.92
2022-11-07T16:34:49.332Z,22.78
2022-11-07T16:37:18.378Z,23.09
2022-11-07T16:39:47.862Z,23.05
2022-11-07T16:42:17.443Z,23.00
2022-11-07T16:44:47.619Z,22.87
2022-11-07T16:47:18.024Z,22.55
2022-11-07T16:49:50.981Z,22.83
2022-11-07T16:52:25.196Z,22.80
2022-11-07T16:54:54.336Z,22.77
2022-11-07T16:57:26.307Z,22.81
2022-11-07T16:59:55.388Z,22.93
2022-11-07T17:02:26.847Z,22.85
2022-11-07T17:04:56.129Z,22.87
2022-11-07T17:07:25.302Z,22.97
2022-11-07T17:09:54.974Z,22.66
2022-11-07T17:12:24.662Z,22.76
2022-11-07T17:14:55.160Z,22.66
2022-11-07T17:17:24.754Z,22.52
2022-11-07T17:19:53.902Z,22.51
2022-11-07T17:22:23.168Z,22.75
2022-11-07T17:24:52.300Z,22.70
2022-11-07T17:27:24.931Z,22.85
2022-11-07T17:29:54.581Z,22.96
2022-11-07T17:32:23.814Z,22.40
2022-11-07T17:35:10.928Z,22.45
2022-11-07T17:37:41.911Z,22.24
2022-11-07T17:40:18.823Z,22.42
2022-11-07T17:42:48.014Z,22.20
2022-11-07T17:45:17.116Z,22.40
2022-11-07T17:47:46.572Z,22.53
2022-11-07T17:50:17.140Z,22.35
2022-11-07T17:52:46.423Z,22.16
2022-11-07T17:55:15.733Z,22.23
2022-11-07T17:57:45.739Z,22.26
2022-11-07T18:00:20.872Z,22.27
2022-11-07T18:02:54.043Z,22.46
2022-11-07T18:05:27.469Z,22.19
2022-11-07T18:07:59.463Z,22.25
2022-11-07T18:10:28.713Z,22.34
2022-11-07T18:12:58.786Z,22.04
2022-11-07T18:15:28.173Z,22.19
2022-11-07T18:17:57.428Z,22.19
2022-11-07T18:20:27.015Z,22.26
2022-11-07T18:22:56.173Z,22.18
2022-11-07T18:25:25.609Z,22.19
2022-11-07T18:27:55.160Z,22.35
2022-11-07T18:30:24.144Z,22.20
2022-11-07T18:32:53.451Z,22.32
2022-11-07T18:35:22.724Z,22.37
2022-11-07T18:37:52.721Z,22.31
2022-11-07T18:40:22.249Z,22.35
2022-11-07T18:42:51.619Z,22.32
2022-11-07T18:45:20.905Z,22.18
2022-11-07T18:47:49.956Z,22.27
2022-11-07T18:50:18.792Z,22.30
2022-11-07T18:52:48.044Z,21.88
2022-11-07T18:55:17.189Z,21.95
2022-11-07T18:57:46.454Z,21.92
2022-11-07T19:00:16.051Z,22.10
2022-11-07T19:02:45.692Z,21.98
2022-11-07T19:05:14.749Z,22.15
2022-11-07T19:07:46.046Z,22.13
2022-11-07T19:10:16.247Z,21.96
2022-11-07T19:12:46.343Z,22.03
2022-11-07T19:15:15.448Z,21.96
2022-11-07T19:17:44.477Z,21.82
2022-11-07T19:20:14.111Z,21.81
2022-11-07T19:22:45.276Z,21.69
2022-11-07T19:25:19.977Z,21.81
2022-11-07T19:27:50.061Z,21.76
2022-11-07T19:30:19.819Z,21.53
2022-11-07T19:32:49.303Z,21.82
2022-11-07T19:35:20.412Z,21.92
2022-11-07T19:37:49.442Z,21.95
2022-11-07T19:40:18.542Z,21.97
2022-11-07T19:42:47.738Z,21.94
2022-11-07T19:45:16.700Z,21.93
2022-11-07T19:47:46.537Z,21.97
2022-11-07T19:50:16.705Z,21.99
2022-11-07T19:52:46.365Z,21.96
2022-11-07T19:55:15.174Z,21.88
2022-11-07T19:57:44.132Z,21.86
2022-11-07T20:00:14.302Z,21.87
2022-11-07T20:02:45.018Z,21.73
2022-11-07T20:05:15.641Z,21.77
2022-11-07T20:07:46.234Z,21.79
2022-11-07T20:10:16.357Z,21.85
2022-11-07T20:12:45.272Z,21.86
2022-11-07T20:15:15.628Z,21.82
2022-11-07T20:17:44.945Z,21.83
2022-11-07T20:20:14.747Z,21.82
2022-11-07T20:22:49.895Z,21.84
2022-11-07T20:25:19.457Z,21.75
2022-11-07T20:27:48.433Z,21.79
2022-11-07T20:30:17.410Z,21.80
2022-11-07T20:32:47.894Z,21.82
2022-11-07T20:35:16.855Z,21.78
2022-11-07T20:37:46.258Z,21.80
2022-11-07T20:40:15.475Z,21.81
2022-11-07T20:42:44.851Z,21.80
2022-11-07T20:45:14.256Z,21.81
2022-11-07T20:47:43.313Z,21.78
2022-11-07T20:50:12.711Z,21.79
2022-11-07T20:52:42.260Z,21.56
2022-11-07T20:55:12.685Z,21.77
2022-11-07T20:57:41.818Z,21.78
2022-11-07T21:00:11.387Z,21.82
2022-11-07T21:02:42.372Z,21.79
2022-11-07T21:05:17.661Z,21.77
2022-11-07T21:07:49.291Z,21.71
2022-11-07T21:10:18.638Z,21.71
2022-11-07T21:12:47.683Z,21.73
2022-11-07T21:15:16.887Z,21.68
2022-11-07T21:17:45.900Z,21.60
2022-11-07T21:20:15.995Z,21.61
2022-11-07T21:22:50.308Z,21.47
2022-11-07T21:25:19.888Z,21.52
2022-11-07T21:27:48.897Z,21.55
2022-11-07T21:30:18.014Z,21.48
2022-11-07T21:32:47.970Z,21.52
2022-11-07T21:35:16.891Z,21.49
2022-11-07T21:37:47.661Z,21.45
2022-11-07T21:40:16.952Z,21.41
2022-11-07T21:42:45.921Z,21.39
2022-11-07T21:45:15.295Z,21.38
2022-11-07T21:47:46.043Z,21.39
2022-11-07T21:50:42.893Z,21.19
2022-11-07T21:53:08.327Z,21.31
2022-11-07T21:55:37.501Z,21.31
2022-11-07T21:58:06.408Z,21.22
2022-11-07T22:00:36.919Z,21.22
2022-11-07T22:03:06.372Z,21.21
2022-11-07T22:05:39.249Z,21.03
2022-11-07T22:08:08.468Z,21.14
2022-11-07T22:10:38.341Z,21.15
2022-11-07T22:13:08.210Z,21.12
2022-11-07T22:15:37.024Z,21.10
2022-11-07T22:18:06.536Z,21.12
2022-11-07T22:20:35.460Z,21.12
2022-11-07T22:23:04.574Z,21.06
2022-11-07T22:25:34.445Z,21.12
2022-11-07T22:28:03.529Z,21.02
2022-11-07T22:30:32.582Z,20.94
2022-11-07T22:33:02.012Z,20.93
2022-11-07T22:35:31.188Z,21.02
2022-11-07T22:38:00.202Z,20.97
2022-11-07T22:40:29.605Z,20.99
2022-11-07T22:42:58.543Z,21.01
2022-11-07T22:45:27.592Z,21.02
2022-11-07T22:47:56.655Z,20.93
2022-11-07T22:50:25.584Z,20.95
2022-11-07T22:52:54.598Z,20.91
2022-11-07T22:55:23.737Z,20.88
2022-11-07T22:57:53.980Z,20.69
2022-11-07T23:00:23.853Z,20.80
2022-11-07T23:02:53.370Z,20.61
2022-11-07T23:05:22.452Z,20.64
2022-11-07T23:07:52.639Z,20.77
2022-11-07T23:10:22.017Z,20.67
2022-11-07T23:12:51.411Z,20.57
2022-11-07T23:15:20.833Z,20.52
2022-11-07T23:17:50.235Z,20.58
2022-11-07T23:20:37.843Z,20.65
2022-11-07T23:23:07.361Z,20.48
2022-11-07T23:25:39.415Z,20.54
2022-11-07T23:28:10.289Z,20.36
2022-11-07T23:30:40.081Z,20.45
2022-11-07T23:33:08.879Z,20.24
2022-11-07T23:35:41.309Z,20.39
2022-11-07T23:38:10.608Z,20.27
2022-11-07T23:40:39.582Z,20.25
2022-11-07T23:43:08.715Z,20.24
2022-11-07T23:45:56.147Z,20.20
2022-11-07T23:48:43.441Z,20.24
2022-11-07T23:51:14.723Z,20.24
2022-11-07T23:54:02.153Z,20.20
2022-11-07T23:56:31.702Z,20.08
2022-11-07T23:59:19.198Z,20.11
